Pagina principale
METAR-TAF:

METAR-TAF

Aeroporti :

Aeroporto di Roma-Ciampino

Roma Ciampino, Italia

latitudine: 41-47N, longitudine: 012-35E, altezza: 129 m

Osservazione

Il bollettino è stato emesso 21 minuti fa, alle 13:50 UTC
Vento 9 kt da sud/sud-ovest
Temperature 27°C
Umidità 62%
Pressione 1016 hPa
Visibilità 10 km o più
Nubi sparse ad un'altezza di 3000 ft

METAR: LIRA 271350Z 21009KT 9999 SCT030 27/19 Q1016

Ora: 16:11 (14:11 UTC)

Previsione

Il bollettino è stato emesso 3 ore e 11 minuti fa, alle 11:00 UTC
Previsione valida dal 27 alle 12 UTC al 28 alle 12 UTC
Vento 10 kt da sud/sud-est
Visibilità 10 km o più
Nubi sparse ad un'altezza di 4000 ft
Temporaneamente
dal 27 alle 12 UTC al 27 alle 15 UTC
rovesci di pioggia
Evoluzione graduale
dal 27 alle 16 UTC al 27 alle 18 UTC
Vento 5 kt da direzioni variabili

TAF: LIRA 271100Z 2712/2812 15010KT 9999 SCT040 TEMPO 2712/2715 SHRA BECMG 2716/2718 VRB05KT

Osservazioni e previsioni meteorologiche di più di 4000 aeroporti (messaggi METAR e TAF).

Le stazioni disponibili sono rappresentate dai dischi gialli e rossi sulla carta.

Puntare il mouse per vedere il nome della stazione.

Clicca sopra per visualizzare le osservazioni e previsioni meteorologiche.

Per cambiare la mappa : fare clic sui pulsanti verdi con una croce nera per ingrandire, il pulsante verde con un trattino per diminuire, o sulla freccia verde per le mappe adiacenti.


METAR-TAF: